Aviation Digital Data Service (ADDS)

Output produced by METARs form (0605 UTC 21 January 2019)
found at http://www.aviationweather.gov/metar/data/
 
METAR text: LYBT 210600Z 33003KT 5000 BR OVC010 00/M01 Q1021 NOSIG
Conditions at: LYBT (BATAJNICA , CS) observed 0600 UTC 21 January 2019
Temperature: 0.0°C (32°F)
Dewpoint: -1.0°C (30°F) [RH = 93%]
Pressure (altimeter): 30.15 inches Hg (1021.0 mb)
Winds: from the NNW (330 degrees) at 3 MPH (3 knots; 1.5 m/s)
Visibility: 3 miles ( 5 km)
Ceiling: 1000 feet AGL
Clouds: overcast cloud deck at 1000 feet AGL
Weather: BR  (mist)

METAR text: LYBT 210530Z 33004KT 5000 BR OVC006 00/M00 Q1021 NOSIG
Conditions at: LYBT (BATAJNICA , CS) observed 0530 UTC 21 January 2019
Temperature: 0.0°C (32°F)
Dewpoint: 0.0°C (32°F) [RH = 100%]
Pressure (altimeter): 30.15 inches Hg (1021.0 mb)
Winds: from the NNW (330 degrees) at 5 MPH (4 knots; 2.1 m/s)
Visibility: 3 miles ( 5 km)
Ceiling: 600 feet AGL
Clouds: overcast cloud deck at 600 feet AGL
Weather: BR  (mist)

METAR text: LYBT 210500Z 33003KT 5000 BR OVC008 00/M00 Q1020 NOSIG
Conditions at: LYBT (BATAJNICA , CS) observed 0500 UTC 21 January 2019
Temperature: 0.0°C (32°F)
Dewpoint: 0.0°C (32°F) [RH = 100%]
Pressure (altimeter): 30.12 inches Hg (1020.0 mb)
Winds: from the NNW (330 degrees) at 3 MPH (3 knots; 1.5 m/s)
Visibility: 3 miles ( 5 km)
Ceiling: 800 feet AGL
Clouds: overcast cloud deck at 800 feet AGL
Weather: BR  (mist)

METAR text: LYBT 210430Z 31004KT 5000 BR OVC008 00/M00 Q1020 NOSIG
Conditions at: LYBT (BATAJNICA , CS) observed 0430 UTC 21 January 2019
Temperature: 0.0°C (32°F)
Dewpoint: 0.0°C (32°F) [RH = 100%]
Pressure (altimeter): 30.12 inches Hg (1020.0 mb)
Winds: from the NW (310 degrees) at 5 MPH (4 knots; 2.1 m/s)
Visibility: 3 miles ( 5 km)
Ceiling: 800 feet AGL
Clouds: overcast cloud deck at 800 feet AGL
Weather: BR  (mist)

METAR text: LYBT 210400Z 32005KT 4000 BR OVC008 00/M00 Q1020 NOSIG
Conditions at: LYBT (BATAJNICA , CS) observed 0400 UTC 21 January 2019
Temperature: 0.0°C (32°F)
Dewpoint: 0.0°C (32°F) [RH = 100%]
Pressure (altimeter): 30.12 inches Hg (1020.0 mb)
Winds: from the NW (320 degrees) at 6 MPH (5 knots; 2.6 m/s)
Visibility: 2.49 miles (4.01 km)
Ceiling: 800 feet AGL
Clouds: overcast cloud deck at 800 feet AGL
Weather: BR  (mist)

METAR text: LYBT 210330Z 31004KT 5000 BR SCT006 OVC015 01/M00 Q1020 NOSIG
Conditions at: LYBT (BATAJNICA , CS) observed 0330 UTC 21 January 2019
Temperature: 1.0°C (34°F)
Dewpoint: 0.0°C (32°F) [RH = 93%]
Pressure (altimeter): 30.12 inches Hg (1020.0 mb)
Winds: from the NW (310 degrees) at 5 MPH (4 knots; 2.1 m/s)
Visibility: 3 miles ( 5 km)
Ceiling: 1500 feet AGL
Clouds: scattered clouds at 600 feet AGL
overcast cloud deck at 1500 feet AGL
Weather: BR  (mist)

METAR text: LYBT 210300Z 31005KT 5000 BR SCT006 OVC015 01/M00 Q1020 NOSIG
Conditions at: LYBT (BATAJNICA , CS) observed 0300 UTC 21 January 2019
Temperature: 1.0°C (34°F)
Dewpoint: 0.0°C (32°F) [RH = 93%]
Pressure (altimeter): 30.12 inches Hg (1020.0 mb)
Winds: from the NW (310 degrees) at 6 MPH (5 knots; 2.6 m/s)
Visibility: 3 miles ( 5 km)
Ceiling: 1500 feet AGL
Clouds: scattered clouds at 600 feet AGL
overcast cloud deck at 1500 feet AGL
Weather: BR  (mist)

METAR text: LYBT 210230Z 29003KT 6000 BKN012 OVC020 01/M00 Q1020 NOSIG
Conditions at: LYBT (BATAJNICA , CS) observed 0230 UTC 21 January 2019
Temperature: 1.0°C (34°F)
Dewpoint: 0.0°C (32°F) [RH = 93%]
Pressure (altimeter): 30.12 inches Hg (1020.0 mb)
Winds: from the WNW (290 degrees) at 3 MPH (3 knots; 1.5 m/s)
Visibility: 4 miles ( 6 km)
Ceiling: 1200 feet AGL
Clouds: broken clouds at 1200 feet AGL
overcast cloud deck at 2000 feet AGL
Weather: no significant weather observed at this time

METAR text: LYBT 210200Z VRB02KT 6000 SCT012 OVC020 01/M00 Q1020 NOSIG
Conditions at: LYBT (BATAJNICA , CS) observed 0200 UTC 21 January 2019
Temperature: 1.0°C (34°F)
Dewpoint: 0.0°C (32°F) [RH = 93%]
Pressure (altimeter): 30.12 inches Hg (1020.0 mb)
Winds: variable direction winds at 2 MPH (2 knots; 1.0 m/s)
Visibility: 4 miles ( 6 km)
Ceiling: 2000 feet AGL
Clouds: scattered clouds at 1200 feet AGL
overcast cloud deck at 2000 feet AGL
Weather: no significant weather observed at this time

METAR text: LYBT 210130Z 32002KT 6000 OVC012 01/M00 Q1020 NOSIG
Conditions at: LYBT (BATAJNICA , CS) observed 0130 UTC 21 January 2019
Temperature: 1.0°C (34°F)
Dewpoint: 0.0°C (32°F) [RH = 93%]
Pressure (altimeter): 30.12 inches Hg (1020.0 mb)
Winds: from the NW (320 degrees) at 2 MPH (2 knots; 1.0 m/s)
Visibility: 4 miles ( 6 km)
Ceiling: 1200 feet AGL
Clouds: overcast cloud deck at 1200 feet AGL
Weather: no significant weather observed at this time

METAR text: LYBT 210100Z 32004KT 7000 OVC012 01/M00 Q1020 NOSIG
Conditions at: LYBT (BATAJNICA , CS) observed 0100 UTC 21 January 2019
Temperature: 1.0°C (34°F)
Dewpoint: 0.0°C (32°F) [RH = 93%]
Pressure (altimeter): 30.12 inches Hg (1020.0 mb)
Winds: from the NW (320 degrees) at 5 MPH (4 knots; 2.1 m/s)
Visibility: 4 miles ( 7 km)
Ceiling: 1200 feet AGL
Clouds: overcast cloud deck at 1200 feet AGL
Weather: no significant weather observed at this time

METAR text: LYBT 210030Z 19003KT 8000 OVC017 01/M01 Q1019 NOSIG
Conditions at: LYBT (BATAJNICA , CS) observed 0030 UTC 21 January 2019
Temperature: 1.0°C (34°F)
Dewpoint: -1.0°C (30°F) [RH = 86%]
Pressure (altimeter): 30.09 inches Hg (1019.0 mb)
Winds: from the S (190 degrees) at 3 MPH (3 knots; 1.5 m/s)
Visibility: 5 miles ( 8 km)
Ceiling: 1700 feet AGL
Clouds: overcast cloud deck at 1700 feet AGL
Weather: no significant weather observed at this time

METAR text: LYBT 210000Z 20004KT 8000 OVC017 01/M01 Q1019 NOSIG
Conditions at: LYBT (BATAJNICA , CS) observed 0000 UTC 21 January 2019
Temperature: 1.0°C (34°F)
Dewpoint: -1.0°C (30°F) [RH = 86%]
Pressure (altimeter): 30.09 inches Hg (1019.0 mb)
Winds: from the SSW (200 degrees) at 5 MPH (4 knots; 2.1 m/s)
Visibility: 5 miles ( 8 km)
Ceiling: 1700 feet AGL
Clouds: overcast cloud deck at 1700 feet AGL
Weather: no significant weather observed at this time

METAR text: LYBT 202330Z 21003KT 9999 OVC017 01/M01 Q1019 NOSIG
Conditions at: LYBT (BATAJNICA , CS) observed 2330 UTC 20 January 2019
Temperature: 1.0°C (34°F)
Dewpoint: -1.0°C (30°F) [RH = 86%]
Pressure (altimeter): 30.09 inches Hg (1019.0 mb)
Winds: from the SSW (210 degrees) at 3 MPH (3 knots; 1.5 m/s)
Visibility: 6 or more miles (10+ km)
Ceiling: 1700 feet AGL
Clouds: overcast cloud deck at 1700 feet AGL
Weather: no significant weather observed at this time

METAR text: LYBT 202300Z VRB02KT 9999 OVC017 01/M01 Q1020 NOSIG
Conditions at: LYBT (BATAJNICA , CS) observed 2300 UTC 20 January 2019
Temperature: 1.0°C (34°F)
Dewpoint: -1.0°C (30°F) [RH = 86%]
Pressure (altimeter): 30.12 inches Hg (1020.0 mb)
Winds: variable direction winds at 2 MPH (2 knots; 1.0 m/s)
Visibility: 6 or more miles (10+ km)
Ceiling: 1700 feet AGL
Clouds: overcast cloud deck at 1700 feet AGL
Weather: no significant weather observed at this time

METAR text: LYBT 202230Z 21003KT 9999 OVC015 01/M01 Q1020 NOSIG
Conditions at: LYBT (BATAJNICA , CS) observed 2230 UTC 20 January 2019
Temperature: 1.0°C (34°F)
Dewpoint: -1.0°C (30°F) [RH = 86%]
Pressure (altimeter): 30.12 inches Hg (1020.0 mb)
Winds: from the SSW (210 degrees) at 3 MPH (3 knots; 1.5 m/s)
Visibility: 6 or more miles (10+ km)
Ceiling: 1500 feet AGL
Clouds: overcast cloud deck at 1500 feet AGL
Weather: no significant weather observed at this time

METAR text: LYBT 202200Z 24003KT 9999 OVC015 01/M01 Q1019 NOSIG
Conditions at: LYBT (BATAJNICA , CS) observed 2200 UTC 20 January 2019
Temperature: 1.0°C (34°F)
Dewpoint: -1.0°C (30°F) [RH = 86%]
Pressure (altimeter): 30.09 inches Hg (1019.0 mb)
Winds: from the WSW (240 degrees) at 3 MPH (3 knots; 1.5 m/s)
Visibility: 6 or more miles (10+ km)
Ceiling: 1500 feet AGL
Clouds: overcast cloud deck at 1500 feet AGL
Weather: no significant weather observed at this time

METAR text: LYBT 202130Z 25004KT 9999 OVC017 01/M01 Q1019 NOSIG
Conditions at: LYBT (BATAJNICA , CS) observed 2130 UTC 20 January 2019
Temperature: 1.0°C (34°F)
Dewpoint: -1.0°C (30°F) [RH = 86%]
Pressure (altimeter): 30.09 inches Hg (1019.0 mb)
Winds: from the WSW (250 degrees) at 5 MPH (4 knots; 2.1 m/s)
Visibility: 6 or more miles (10+ km)
Ceiling: 1700 feet AGL
Clouds: overcast cloud deck at 1700 feet AGL
Weather: no significant weather observed at this time

METAR text: LYBT 202100Z 24004KT 9999 OVC018 01/M01 Q1019 NOSIG
Conditions at: LYBT (BATAJNICA , CS) observed 2100 UTC 20 January 2019
Temperature: 1.0°C (34°F)
Dewpoint: -1.0°C (30°F) [RH = 86%]
Pressure (altimeter): 30.09 inches Hg (1019.0 mb)
Winds: from the WSW (240 degrees) at 5 MPH (4 knots; 2.1 m/s)
Visibility: 6 or more miles (10+ km)
Ceiling: 1800 feet AGL
Clouds: overcast cloud deck at 1800 feet AGL
Weather: no significant weather observed at this time

METAR text: LYBT 202030Z 24004KT 9999 OVC020 01/M01 Q1019 NOSIG
Conditions at: LYBT (BATAJNICA , CS) observed 2030 UTC 20 January 2019
Temperature: 1.0°C (34°F)
Dewpoint: -1.0°C (30°F) [RH = 86%]
Pressure (altimeter): 30.09 inches Hg (1019.0 mb)
Winds: from the WSW (240 degrees) at 5 MPH (4 knots; 2.1 m/s)
Visibility: 6 or more miles (10+ km)
Ceiling: 2000 feet AGL
Clouds: overcast cloud deck at 2000 feet AGL
Weather: no significant weather observed at this time

METAR text: LYBT 202000Z 23004KT 9999 OVC021 01/M01 Q1018 NOSIG
Conditions at: LYBT (BATAJNICA , CS) observed 2000 UTC 20 January 2019
Temperature: 1.0°C (34°F)
Dewpoint: -1.0°C (30°F) [RH = 86%]
Pressure (altimeter): 30.06 inches Hg (1018.0 mb)
Winds: from the SW (230 degrees) at 5 MPH (4 knots; 2.1 m/s)
Visibility: 6 or more miles (10+ km)
Ceiling: 2100 feet AGL
Clouds: overcast cloud deck at 2100 feet AGL
Weather: no significant weather observed at this time

METAR text: LYBT 201930Z 22003KT 9999 FEW017 BKN023 01/M00 Q1018 NOSIG
Conditions at: LYBT (BATAJNICA , CS) observed 1930 UTC 20 January 2019
Temperature: 1.0°C (34°F)
Dewpoint: 0.0°C (32°F) [RH = 93%]
Pressure (altimeter): 30.06 inches Hg (1018.0 mb)
Winds: from the SW (220 degrees) at 3 MPH (3 knots; 1.5 m/s)
Visibility: 6 or more miles (10+ km)
Ceiling: 2300 feet AGL
Clouds: few clouds at 1700 feet AGL
broken clouds at 2300 feet AGL
Weather: no significant weather observed at this time

METAR text: LYBT 201900Z 21004KT 9999 SCT017 BKN023 01/M01 Q1018 NOSIG
Conditions at: LYBT (BATAJNICA , CS) observed 1900 UTC 20 January 2019
Temperature: 1.0°C (34°F)
Dewpoint: -1.0°C (30°F) [RH = 86%]
Pressure (altimeter): 30.06 inches Hg (1018.0 mb)
Winds: from the SSW (210 degrees) at 5 MPH (4 knots; 2.1 m/s)
Visibility: 6 or more miles (10+ km)
Ceiling: 2300 feet AGL
Clouds: scattered clouds at 1700 feet AGL
broken clouds at 2300 feet AGL
Weather: no significant weather observed at this time

METAR text: LYBT 201830Z 26004KT 9999 BKN017 BKN030 01/M01 Q1018 NOSIG
Conditions at: LYBT (BATAJNICA , CS) observed 1830 UTC 20 January 2019
Temperature: 1.0°C (34°F)
Dewpoint: -1.0°C (30°F) [RH = 86%]
Pressure (altimeter): 30.06 inches Hg (1018.0 mb)
Winds: from the W (260 degrees) at 5 MPH (4 knots; 2.1 m/s)
Visibility: 6 or more miles (10+ km)
Ceiling: 1700 feet AGL
Clouds: broken clouds at 1700 feet AGL
broken clouds at 3000 feet AGL
Weather: no significant weather observed at this time

METAR text: LYBT 201800Z 26004KT 8000 SCT015 BKN030 02/M00 Q1018 NOSIG
Conditions at: LYBT (BATAJNICA , CS) observed 1800 UTC 20 January 2019
Temperature: 2.0°C (36°F)
Dewpoint: 0.0°C (32°F) [RH = 87%]
Pressure (altimeter): 30.06 inches Hg (1018.0 mb)
Winds: from the W (260 degrees) at 5 MPH (4 knots; 2.1 m/s)
Visibility: 5 miles ( 8 km)
Ceiling: 3000 feet AGL
Clouds: scattered clouds at 1500 feet AGL
broken clouds at 3000 feet AGL
Weather: no significant weather observed at this time

METAR text: LYBT 201730Z 25004KT 220V280 8000 SCT010 BKN030 02/00 Q1017 NOSIG
Conditions at: LYBT (BATAJNICA , CS) observed 1730 UTC 20 January 2019
Temperature: 2.0°C (36°F)
Dewpoint: 0.0°C (32°F) [RH = 87%]
Pressure (altimeter): 30.03 inches Hg (1017.0 mb)
Winds: from the WSW (250 degrees) at 5 MPH (4 knots; 2.1 m/s)
Visibility: 5 miles ( 8 km)
Ceiling: 3000 feet AGL
Clouds: scattered clouds at 1000 feet AGL
broken clouds at 3000 feet AGL
Weather: no significant weather observed at this time

METAR text: LYBT 201700Z 24004KT 210V270 8000 SCT010 BKN030 02/00 Q1017 NOSIG
Conditions at: LYBT (BATAJNICA , CS) observed 1700 UTC 20 January 2019
Temperature: 2.0°C (36°F)
Dewpoint: 0.0°C (32°F) [RH = 87%]
Pressure (altimeter): 30.03 inches Hg (1017.0 mb)
Winds: from the WSW (240 degrees) at 5 MPH (4 knots; 2.1 m/s)
Visibility: 5 miles ( 8 km)
Ceiling: 3000 feet AGL
Clouds: scattered clouds at 1000 feet AGL
broken clouds at 3000 feet AGL
Weather: no significant weather observed at this time

METAR text: LYBT 201630Z 24004KT 210V270 8000 SCT010 BKN030 02/00 Q1017 NOSIG
Conditions at: LYBT (BATAJNICA , CS) observed 1630 UTC 20 January 2019
Temperature: 2.0°C (36°F)
Dewpoint: 0.0°C (32°F) [RH = 87%]
Pressure (altimeter): 30.03 inches Hg (1017.0 mb)
Winds: from the WSW (240 degrees) at 5 MPH (4 knots; 2.1 m/s)
Visibility: 5 miles ( 8 km)
Ceiling: 3000 feet AGL
Clouds: scattered clouds at 1000 feet AGL
broken clouds at 3000 feet AGL
Weather: no significant weather observed at this time

METAR text: LYBT 201600Z 25004KT 8000 SCT010 BKN030 02/01 Q1016 NOSIG
Conditions at: LYBT (BATAJNICA , CS) observed 1600 UTC 20 January 2019
Temperature: 2.0°C (36°F)
Dewpoint: 1.0°C (34°F) [RH = 93%]
Pressure (altimeter): 30.00 inches Hg (1016.0 mb)
Winds: from the WSW (250 degrees) at 5 MPH (4 knots; 2.1 m/s)
Visibility: 5 miles ( 8 km)
Ceiling: 3000 feet AGL
Clouds: scattered clouds at 1000 feet AGL
broken clouds at 3000 feet AGL
Weather: no significant weather observed at this time

METAR text: LYBT 201530Z 25006KT 8000 SCT010 BKN030 02/01 Q1016 NOSIG
Conditions at: LYBT (BATAJNICA , CS) observed 1530 UTC 20 January 2019
Temperature: 2.0°C (36°F)
Dewpoint: 1.0°C (34°F) [RH = 93%]
Pressure (altimeter): 30.00 inches Hg (1016.0 mb)
Winds: from the WSW (250 degrees) at 7 MPH (6 knots; 3.1 m/s)
Visibility: 5 miles ( 8 km)
Ceiling: 3000 feet AGL
Clouds: scattered clouds at 1000 feet AGL
broken clouds at 3000 feet AGL
Weather: no significant weather observed at this time

METAR text: LYBT 201500Z 24006KT 8000 SCT013 BKN030 02/01 Q1016 NOSIG
Conditions at: LYBT (BATAJNICA , CS) observed 1500 UTC 20 January 2019
Temperature: 2.0°C (36°F)
Dewpoint: 1.0°C (34°F) [RH = 93%]
Pressure (altimeter): 30.00 inches Hg (1016.0 mb)
Winds: from the WSW (240 degrees) at 7 MPH (6 knots; 3.1 m/s)
Visibility: 5 miles ( 8 km)
Ceiling: 3000 feet AGL
Clouds: scattered clouds at 1300 feet AGL
broken clouds at 3000 feet AGL
Weather: no significant weather observed at this time

METAR text: LYBT 201430Z 23006KT 6000 SCT007 BKN025 02/01 Q1016 NOSIG
Conditions at: LYBT (BATAJNICA , CS) observed 1430 UTC 20 January 2019
Temperature: 2.0°C (36°F)
Dewpoint: 1.0°C (34°F) [RH = 93%]
Pressure (altimeter): 30.00 inches Hg (1016.0 mb)
Winds: from the SW (230 degrees) at 7 MPH (6 knots; 3.1 m/s)
Visibility: 4 miles ( 6 km)
Ceiling: 2500 feet AGL
Clouds: scattered clouds at 700 feet AGL
broken clouds at 2500 feet AGL
Weather: no significant weather observed at this time

METAR text: LYBT 201400Z 23006KT 4000 -RA BR SCT007 BKN013 02/01 Q1016 NOSIG
Conditions at: LYBT (BATAJNICA , CS) observed 1400 UTC 20 January 2019
Temperature: 2.0°C (36°F)
Dewpoint: 1.0°C (34°F) [RH = 93%]
Pressure (altimeter): 30.00 inches Hg (1016.0 mb)
Winds: from the SW (230 degrees) at 7 MPH (6 knots; 3.1 m/s)
Visibility: 2.49 miles (4.01 km)
Ceiling: 1300 feet AGL
Clouds: scattered clouds at 700 feet AGL
broken clouds at 1300 feet AGL
Weather: -RA BR  (light rain, mist)

METAR text: LYBT 201330Z 24007KT 4000 -RA BR SCT007 BKN013 02/01 Q1015 NOSIG
Conditions at: LYBT (BATAJNICA , CS) observed 1330 UTC 20 January 2019
Temperature: 2.0°C (36°F)
Dewpoint: 1.0°C (34°F) [RH = 93%]
Pressure (altimeter): 29.97 inches Hg (1015.0 mb)
Winds: from the WSW (240 degrees) at 8 MPH (7 knots; 3.6 m/s)
Visibility: 2.49 miles (4.01 km)
Ceiling: 1300 feet AGL
Clouds: scattered clouds at 700 feet AGL
broken clouds at 1300 feet AGL
Weather: -RA BR  (light rain, mist)

METAR text: LYBT 201300Z 24007KT 4000 -RA BR SCT007 BKN013 02/01 Q1015 NOSIG
Conditions at: LYBT (BATAJNICA , CS) observed 1300 UTC 20 January 2019
Temperature: 2.0°C (36°F)
Dewpoint: 1.0°C (34°F) [RH = 93%]
Pressure (altimeter): 29.97 inches Hg (1015.0 mb)
Winds: from the WSW (240 degrees) at 8 MPH (7 knots; 3.6 m/s)
Visibility: 2.49 miles (4.01 km)
Ceiling: 1300 feet AGL
Clouds: scattered clouds at 700 feet AGL
broken clouds at 1300 feet AGL
Weather: -RA BR  (light rain, mist)

METAR text: LYBT 201230Z 23005KT 4000 -RA BR SCT007 BKN013 02/01 Q1015 NOSIG
Conditions at: LYBT (BATAJNICA , CS) observed 1230 UTC 20 January 2019
Temperature: 2.0°C (36°F)
Dewpoint: 1.0°C (34°F) [RH = 93%]
Pressure (altimeter): 29.97 inches Hg (1015.0 mb)
Winds: from the SW (230 degrees) at 6 MPH (5 knots; 2.6 m/s)
Visibility: 2.49 miles (4.01 km)
Ceiling: 1300 feet AGL
Clouds: scattered clouds at 700 feet AGL
broken clouds at 1300 feet AGL
Weather: -RA BR  (light rain, mist)

METAR text: LYBT 201200Z 23005KT 3000 -RA BR SCT004 BKN013 02/01 Q1015 NOSIG
Conditions at: LYBT (BATAJNICA , CS) observed 1200 UTC 20 January 2019
Temperature: 2.0°C (36°F)
Dewpoint: 1.0°C (34°F) [RH = 93%]
Pressure (altimeter): 29.97 inches Hg (1015.0 mb)
Winds: from the SW (230 degrees) at 6 MPH (5 knots; 2.6 m/s)
Visibility: 1.86 miles (2.99 km)
Ceiling: 1300 feet AGL
Clouds: scattered clouds at 400 feet AGL
broken clouds at 1300 feet AGL
Weather: -RA BR  (light rain, mist)

METAR text: LYBT 201130Z 24004KT 200V280 2000 -RA BR SCT004 BKN013 01/01 Q1015 NOSIG
Conditions at: LYBT (BATAJNICA , CS) observed 1130 UTC 20 January 2019
Temperature: 1.0°C (34°F)
Dewpoint: 1.0°C (34°F) [RH = 100%]
Pressure (altimeter): 29.97 inches Hg (1015.0 mb)
Winds: from the WSW (240 degrees) at 5 MPH (4 knots; 2.1 m/s)
Visibility: 1.24 miles (2.00 km)
Ceiling: 1300 feet AGL
Clouds: scattered clouds at 400 feet AGL
broken clouds at 1300 feet AGL
Weather: -RA BR  (light rain, mist)

METAR text: LYBT 201100Z 23004KT 180V250 2000 -RASN BR SCT003 BKN010 01/00 Q1015 NOSIG
Conditions at: LYBT (BATAJNICA , CS) observed 1100 UTC 20 January 2019
Temperature: 1.0°C (34°F)
Dewpoint: 0.0°C (32°F) [RH = 93%]
Pressure (altimeter): 29.97 inches Hg (1015.0 mb)
Winds: from the SW (230 degrees) at 5 MPH (4 knots; 2.1 m/s)
Visibility: 1.24 miles (2.00 km)
Ceiling: 1000 feet AGL
Clouds: scattered clouds at 300 feet AGL
broken clouds at 1000 feet AGL
Weather: -RA -SN BR  (light rain, light snow, mist)

METAR text: LYBT 201030Z 23003KT 2000 -RASN BR SCT003 BKN010 01/00 Q1015 NOSIG
Conditions at: LYBT (BATAJNICA , CS) observed 1030 UTC 20 January 2019
Temperature: 1.0°C (34°F)
Dewpoint: 0.0°C (32°F) [RH = 93%]
Pressure (altimeter): 29.97 inches Hg (1015.0 mb)
Winds: from the SW (230 degrees) at 3 MPH (3 knots; 1.5 m/s)
Visibility: 1.24 miles (2.00 km)
Ceiling: 1000 feet AGL
Clouds: scattered clouds at 300 feet AGL
broken clouds at 1000 feet AGL
Weather: -RA -SN BR  (light rain, light snow, mist)

METAR text: LYBT 201000Z 23004KT 210V270 2000 -RASN BR SCT003 BKN010 01/01 Q1015 NOSIG
Conditions at: LYBT (BATAJNICA , CS) observed 1000 UTC 20 January 2019
Temperature: 1.0°C (34°F)
Dewpoint: 1.0°C (34°F) [RH = 100%]
Pressure (altimeter): 29.97 inches Hg (1015.0 mb)
Winds: from the SW (230 degrees) at 5 MPH (4 knots; 2.1 m/s)
Visibility: 1.24 miles (2.00 km)
Ceiling: 1000 feet AGL
Clouds: scattered clouds at 300 feet AGL
broken clouds at 1000 feet AGL
Weather: -RA -SN BR  (light rain, light snow, mist)

METAR text: LYBT 200930Z 18003KT 150V210 1500 -RASN BR SCT003 BKN010 01/00 Q1016 NOSIG
Conditions at: LYBT (BATAJNICA , CS) observed 0930 UTC 20 January 2019
Temperature: 1.0°C (34°F)
Dewpoint: 0.0°C (32°F) [RH = 93%]
Pressure (altimeter): 30.00 inches Hg (1016.0 mb)
Winds: from the S (180 degrees) at 3 MPH (3 knots; 1.5 m/s)
Visibility: 0.93 miles (1.50 km)
Ceiling: 1000 feet AGL
Clouds: scattered clouds at 300 feet AGL
broken clouds at 1000 feet AGL
Weather: -RA -SN BR  (light rain, light snow, mist)

METAR text: LYBT 200900Z 12002KT 1500 SN BR SCT005 BKN015 01/00 Q1015 NOSIG
Conditions at: LYBT (BATAJNICA , CS) observed 0900 UTC 20 January 2019
Temperature: 1.0°C (34°F)
Dewpoint: 0.0°C (32°F) [RH = 93%]
Pressure (altimeter): 29.97 inches Hg (1015.0 mb)
Winds: from the ESE (120 degrees) at 2 MPH (2 knots; 1.0 m/s)
Visibility: 0.93 miles (1.50 km)
Ceiling: 1500 feet AGL
Clouds: scattered clouds at 500 feet AGL
broken clouds at 1500 feet AGL
Weather: SN BR  (moderate snow, mist)

METAR text: LYBT 200830Z 10003KT 3000 -SN BR SCT006 BKN015 01/00 Q1015 NOSIG
Conditions at: LYBT (BATAJNICA , CS) observed 0830 UTC 20 January 2019
Temperature: 1.0°C (34°F)
Dewpoint: 0.0°C (32°F) [RH = 93%]
Pressure (altimeter): 29.97 inches Hg (1015.0 mb)
Winds: from the E (100 degrees) at 3 MPH (3 knots; 1.5 m/s)
Visibility: 1.86 miles (2.99 km)
Ceiling: 1500 feet AGL
Clouds: scattered clouds at 600 feet AGL
broken clouds at 1500 feet AGL
Weather: -SN BR  (light snow, mist)

METAR text: LYBT 200800Z 10004KT 3000 -SN BR SCT008 BKN015 00/00 Q1015 NOSIG
Conditions at: LYBT (BATAJNICA , CS) observed 0800 UTC 20 January 2019
Temperature: 0.0°C (32°F)
Dewpoint: 0.0°C (32°F) [RH = 100%]
Pressure (altimeter): 29.97 inches Hg (1015.0 mb)
Winds: from the E (100 degrees) at 5 MPH (4 knots; 2.1 m/s)
Visibility: 1.86 miles (2.99 km)
Ceiling: 1500 feet AGL
Clouds: scattered clouds at 800 feet AGL
broken clouds at 1500 feet AGL
Weather: -SN BR  (light snow, mist)

METAR text: LYBT 200730Z 09003KT 6000 -RASN SCT010 BKN025 00/M00 Q1015 NOSIG
Conditions at: LYBT (BATAJNICA , CS) observed 0730 UTC 20 January 2019
Temperature: 0.0°C (32°F)
Dewpoint: 0.0°C (32°F) [RH = 100%]
Pressure (altimeter): 29.97 inches Hg (1015.0 mb)
Winds: from the E (90 degrees) at 3 MPH (3 knots; 1.5 m/s)
Visibility: 4 miles ( 6 km)
Ceiling: 2500 feet AGL
Clouds: scattered clouds at 1000 feet AGL
broken clouds at 2500 feet AGL
Weather: -RA -SN  (light rain, light snow)

METAR text: LYBT 200700Z 07004KT 040V100 6000 -SN BKN015 01/M00 Q1015 NOSIG
Conditions at: LYBT (BATAJNICA , CS) observed 0700 UTC 20 January 2019
Temperature: 1.0°C (34°F)
Dewpoint: 0.0°C (32°F) [RH = 93%]
Pressure (altimeter): 29.97 inches Hg (1015.0 mb)
Winds: from the ENE (70 degrees) at 5 MPH (4 knots; 2.1 m/s)
Visibility: 4 miles ( 6 km)
Ceiling: 1500 feet AGL
Clouds: broken clouds at 1500 feet AGL
Weather: -SN  (light snow)

METAR text: LYBT 200630Z 06003KT 9999 BKN017 01/M00 Q1015 NOSIG
Conditions at: LYBT (BATAJNICA , CS) observed 0630 UTC 20 January 2019
Temperature: 1.0°C (34°F)
Dewpoint: 0.0°C (32°F) [RH = 93%]
Pressure (altimeter): 29.97 inches Hg (1015.0 mb)
Winds: from the ENE (60 degrees) at 3 MPH (3 knots; 1.5 m/s)
Visibility: 6 or more miles (10+ km)
Ceiling: 1700 feet AGL
Clouds: broken clouds at 1700 feet AGL
Weather: no significant weather observed at this time

METAR text: LYBT 200600Z 06003KT 9999 SCT013 BKN033 00/M00 Q1014 NOSIG
Conditions at: LYBT (BATAJNICA , CS) observed 0600 UTC 20 January 2019
Temperature: 0.0°C (32°F)
Dewpoint: 0.0°C (32°F) [RH = 100%]
Pressure (altimeter): 29.94 inches Hg (1014.0 mb)
Winds: from the ENE (60 degrees) at 3 MPH (3 knots; 1.5 m/s)
Visibility: 6 or more miles (10+ km)
Ceiling: 3300 feet AGL
Clouds: scattered clouds at 1300 feet AGL
broken clouds at 3300 feet AGL
Weather: no significant weather observed at this time

METAR text: LYBT 200530Z 06003KT 8000 SCT013 BKN033 00/M00 Q1014 NOSIG
Conditions at: LYBT (BATAJNICA , CS) observed 0530 UTC 20 January 2019
Temperature: 0.0°C (32°F)
Dewpoint: 0.0°C (32°F) [RH = 100%]
Pressure (altimeter): 29.94 inches Hg (1014.0 mb)
Winds: from the ENE (60 degrees) at 3 MPH (3 knots; 1.5 m/s)
Visibility: 5 miles ( 8 km)
Ceiling: 3300 feet AGL
Clouds: scattered clouds at 1300 feet AGL
broken clouds at 3300 feet AGL
Weather: no significant weather observed at this time

METAR text: LYBT 200500Z 03002KT 8000 -RASN SCT013 BKN033 00/M00 Q1014 NOSIG
Conditions at: LYBT (BATAJNICA , CS) observed 0500 UTC 20 January 2019
Temperature: 0.0°C (32°F)
Dewpoint: 0.0°C (32°F) [RH = 100%]
Pressure (altimeter): 29.94 inches Hg (1014.0 mb)
Winds: from the NNE (30 degrees) at 2 MPH (2 knots; 1.0 m/s)
Visibility: 5 miles ( 8 km)
Ceiling: 3300 feet AGL
Clouds: scattered clouds at 1300 feet AGL
broken clouds at 3300 feet AGL
Weather: -RA -SN  (light rain, light snow)

METAR text: LYBT 200430Z VRB02KT 9999 -RASN BKN025 01/M00 Q1014 NOSIG
Conditions at: LYBT (BATAJNICA , CS) observed 0430 UTC 20 January 2019
Temperature: 1.0°C (34°F)
Dewpoint: 0.0°C (32°F) [RH = 93%]
Pressure (altimeter): 29.94 inches Hg (1014.0 mb)
Winds: variable direction winds at 2 MPH (2 knots; 1.0 m/s)
Visibility: 6 or more miles (10+ km)
Ceiling: 2500 feet AGL
Clouds: broken clouds at 2500 feet AGL
Weather: -RA -SN  (light rain, light snow)

METAR text: LYBT 200400Z 06004KT 9999 -RASN BKN030 01/00 Q1015 NOSIG
Conditions at: LYBT (BATAJNICA , CS) observed 0400 UTC 20 January 2019
Temperature: 1.0°C (34°F)
Dewpoint: 0.0°C (32°F) [RH = 93%]
Pressure (altimeter): 29.97 inches Hg (1015.0 mb)
Winds: from the ENE (60 degrees) at 5 MPH (4 knots; 2.1 m/s)
Visibility: 6 or more miles (10+ km)
Ceiling: 3000 feet AGL
Clouds: broken clouds at 3000 feet AGL
Weather: -RA -SN  (light rain, light snow)

METAR text: LYBT 200330Z 06005KT 9999 -RASN BKN027 01/M00 Q1015 NOSIG
Conditions at: LYBT (BATAJNICA , CS) observed 0330 UTC 20 January 2019
Temperature: 1.0°C (34°F)
Dewpoint: 0.0°C (32°F) [RH = 93%]
Pressure (altimeter): 29.97 inches Hg (1015.0 mb)
Winds: from the ENE (60 degrees) at 6 MPH (5 knots; 2.6 m/s)
Visibility: 6 or more miles (10+ km)
Ceiling: 2700 feet AGL
Clouds: broken clouds at 2700 feet AGL
Weather: -RA -SN  (light rain, light snow)

METAR text: LYBT 200300Z 06006KT 9999 -RASN BKN027 01/M00 Q1015 NOSIG
Conditions at: LYBT (BATAJNICA , CS) observed 0300 UTC 20 January 2019
Temperature: 1.0°C (34°F)
Dewpoint: 0.0°C (32°F) [RH = 93%]
Pressure (altimeter): 29.97 inches Hg (1015.0 mb)
Winds: from the ENE (60 degrees) at 7 MPH (6 knots; 3.1 m/s)
Visibility: 6 or more miles (10+ km)
Ceiling: 2700 feet AGL
Clouds: broken clouds at 2700 feet AGL
Weather: -RA -SN  (light rain, light snow)

METAR text: LYBT 200230Z 06006KT 030V090 9999 -RASN BKN027 01/M01 Q1015 NOSIG
Conditions at: LYBT (BATAJNICA , CS) observed 0230 UTC 20 January 2019
Temperature: 1.0°C (34°F)
Dewpoint: -1.0°C (30°F) [RH = 86%]
Pressure (altimeter): 29.97 inches Hg (1015.0 mb)
Winds: from the ENE (60 degrees) at 7 MPH (6 knots; 3.1 m/s)
Visibility: 6 or more miles (10+ km)
Ceiling: 2700 feet AGL
Clouds: broken clouds at 2700 feet AGL
Weather: -RA -SN  (light rain, light snow)

METAR text: LYBT 200200Z 06006KT 9999 -RA BKN027 01/M01 Q1015 NOSIG
Conditions at: LYBT (BATAJNICA , CS) observed 0200 UTC 20 January 2019
Temperature: 1.0°C (34°F)
Dewpoint: -1.0°C (30°F) [RH = 86%]
Pressure (altimeter): 29.97 inches Hg (1015.0 mb)
Winds: from the ENE (60 degrees) at 7 MPH (6 knots; 3.1 m/s)
Visibility: 6 or more miles (10+ km)
Ceiling: 2700 feet AGL
Clouds: broken clouds at 2700 feet AGL
Weather: -RA  (light rain)

METAR text: LYBT 200130Z 07007KT 040V100 9999 BKN025 02/M01 Q1015 NOSIG
Conditions at: LYBT (BATAJNICA , CS) observed 0130 UTC 20 January 2019
Temperature: 2.0°C (36°F)
Dewpoint: -1.0°C (30°F) [RH = 80%]
Pressure (altimeter): 29.97 inches Hg (1015.0 mb)
Winds: from the ENE (70 degrees) at 8 MPH (7 knots; 3.6 m/s)
Visibility: 6 or more miles (10+ km)
Ceiling: 2500 feet AGL
Clouds: broken clouds at 2500 feet AGL
Weather: no significant weather observed at this time

METAR text: LYBT 200100Z 07009KT 030V110 9999 BKN025 02/M01 Q1016 NOSIG
Conditions at: LYBT (BATAJNICA , CS) observed 0100 UTC 20 January 2019
Temperature: 2.0°C (36°F)
Dewpoint: -1.0°C (30°F) [RH = 80%]
Pressure (altimeter): 30.00 inches Hg (1016.0 mb)
Winds: from the ENE (70 degrees) at 10 MPH (9 knots; 4.6 m/s)
Visibility: 6 or more miles (10+ km)
Ceiling: 2500 feet AGL
Clouds: broken clouds at 2500 feet AGL
Weather: no significant weather observed at this time

METAR text: LYBT 200030Z 06008KT 030V100 9999 BKN025 02/M01 Q1016 NOSIG
Conditions at: LYBT (BATAJNICA , CS) observed 0030 UTC 20 January 2019
Temperature: 2.0°C (36°F)
Dewpoint: -1.0°C (30°F) [RH = 80%]
Pressure (altimeter): 30.00 inches Hg (1016.0 mb)
Winds: from the ENE (60 degrees) at 9 MPH (8 knots; 4.1 m/s)
Visibility: 6 or more miles (10+ km)
Ceiling: 2500 feet AGL
Clouds: broken clouds at 2500 feet AGL
Weather: no significant weather observed at this time

METAR text: LYBT 200000Z 06009KT 030V100 9999 BKN025 02/M01 Q1016 NOSIG
Conditions at: LYBT (BATAJNICA , CS) observed 0000 UTC 20 January 2019
Temperature: 2.0°C (36°F)
Dewpoint: -1.0°C (30°F) [RH = 80%]
Pressure (altimeter): 30.00 inches Hg (1016.0 mb)
Winds: from the ENE (60 degrees) at 10 MPH (9 knots; 4.6 m/s)
Visibility: 6 or more miles (10+ km)
Ceiling: 2500 feet AGL
Clouds: broken clouds at 2500 feet AGL
Weather: no significant weather observed at this time

METAR text: LYBT 192330Z 07009KT 030V100 9999 BKN027 02/M01 Q1016 NOSIG
Conditions at: LYBT (BATAJNICA , CS) observed 2330 UTC 19 January 2019
Temperature: 2.0°C (36°F)
Dewpoint: -1.0°C (30°F) [RH = 80%]
Pressure (altimeter): 30.00 inches Hg (1016.0 mb)
Winds: from the ENE (70 degrees) at 10 MPH (9 knots; 4.6 m/s)
Visibility: 6 or more miles (10+ km)
Ceiling: 2700 feet AGL
Clouds: broken clouds at 2700 feet AGL
Weather: no significant weather observed at this time

METAR text: LYBT 192300Z 07009KT 9999 BKN027 02/M01 Q1016 NOSIG
Conditions at: LYBT (BATAJNICA , CS) observed 2300 UTC 19 January 2019
Temperature: 2.0°C (36°F)
Dewpoint: -1.0°C (30°F) [RH = 80%]
Pressure (altimeter): 30.00 inches Hg (1016.0 mb)
Winds: from the ENE (70 degrees) at 10 MPH (9 knots; 4.6 m/s)
Visibility: 6 or more miles (10+ km)
Ceiling: 2700 feet AGL
Clouds: broken clouds at 2700 feet AGL
Weather: no significant weather observed at this time

METAR text: LYBT 192230Z 06008KT 030V090 9999 BKN027 02/M01 Q1017 NOSIG
Conditions at: LYBT (BATAJNICA , CS) observed 2230 UTC 19 January 2019
Temperature: 2.0°C (36°F)
Dewpoint: -1.0°C (30°F) [RH = 80%]
Pressure (altimeter): 30.03 inches Hg (1017.0 mb)
Winds: from the ENE (60 degrees) at 9 MPH (8 knots; 4.1 m/s)
Visibility: 6 or more miles (10+ km)
Ceiling: 2700 feet AGL
Clouds: broken clouds at 2700 feet AGL
Weather: no significant weather observed at this time

METAR text: LYBT 192200Z 07010KT 030V100 9999 BKN030 02/M01 Q1017 NOSIG
Conditions at: LYBT (BATAJNICA , CS) observed 2200 UTC 19 January 2019
Temperature: 2.0°C (36°F)
Dewpoint: -1.0°C (30°F) [RH = 80%]
Pressure (altimeter): 30.03 inches Hg (1017.0 mb)
Winds: from the ENE (70 degrees) at 12 MPH (10 knots; 5.1 m/s)
Visibility: 6 or more miles (10+ km)
Ceiling: 3000 feet AGL
Clouds: broken clouds at 3000 feet AGL
Weather: no significant weather observed at this time

METAR text: LYBT 192130Z 07011KT 040V100 9999 BKN027 02/M01 Q1017 NOSIG
Conditions at: LYBT (BATAJNICA , CS) observed 2130 UTC 19 January 2019
Temperature: 2.0°C (36°F)
Dewpoint: -1.0°C (30°F) [RH = 80%]
Pressure (altimeter): 30.03 inches Hg (1017.0 mb)
Winds: from the ENE (70 degrees) at 13 MPH (11 knots; 5.7 m/s)
Visibility: 6 or more miles (10+ km)
Ceiling: 2700 feet AGL
Clouds: broken clouds at 2700 feet AGL
Weather: no significant weather observed at this time

METAR text: LYBT 192100Z 07012KT 030V100 9999 BKN027 02/M01 Q1017 NOSIG
Conditions at: LYBT (BATAJNICA , CS) observed 2100 UTC 19 January 2019
Temperature: 2.0°C (36°F)
Dewpoint: -1.0°C (30°F) [RH = 80%]
Pressure (altimeter): 30.03 inches Hg (1017.0 mb)
Winds: from the ENE (70 degrees) at 14 MPH (12 knots; 6.2 m/s)
Visibility: 6 or more miles (10+ km)
Ceiling: 2700 feet AGL
Clouds: broken clouds at 2700 feet AGL
Weather: no significant weather observed at this time

METAR text: LYBT 192030Z 07011KT 040V100 9999 BKN027 02/M01 Q1017 NOSIG
Conditions at: LYBT (BATAJNICA , CS) observed 2030 UTC 19 January 2019
Temperature: 2.0°C (36°F)
Dewpoint: -1.0°C (30°F) [RH = 80%]
Pressure (altimeter): 30.03 inches Hg (1017.0 mb)
Winds: from the ENE (70 degrees) at 13 MPH (11 knots; 5.7 m/s)
Visibility: 6 or more miles (10+ km)
Ceiling: 2700 feet AGL
Clouds: broken clouds at 2700 feet AGL
Weather: no significant weather observed at this time

METAR text: LYBT 192000Z 07010KT 030V100 9999 BKN030 02/M01 Q1017 NOSIG
Conditions at: LYBT (BATAJNICA , CS) observed 2000 UTC 19 January 2019
Temperature: 2.0°C (36°F)
Dewpoint: -1.0°C (30°F) [RH = 80%]
Pressure (altimeter): 30.03 inches Hg (1017.0 mb)
Winds: from the ENE (70 degrees) at 12 MPH (10 knots; 5.1 m/s)
Visibility: 6 or more miles (10+ km)
Ceiling: 3000 feet AGL
Clouds: broken clouds at 3000 feet AGL
Weather: no significant weather observed at this time

METAR text: LYBT 191930Z 06009KT 030V100 9999 -RA BKN030 02/M00 Q1017 NOSIG
Conditions at: LYBT (BATAJNICA , CS) observed 1930 UTC 19 January 2019
Temperature: 2.0°C (36°F)
Dewpoint: 0.0°C (32°F) [RH = 87%]
Pressure (altimeter): 30.03 inches Hg (1017.0 mb)
Winds: from the ENE (60 degrees) at 10 MPH (9 knots; 4.6 m/s)
Visibility: 6 or more miles (10+ km)
Ceiling: 3000 feet AGL
Clouds: broken clouds at 3000 feet AGL
Weather: -RA  (light rain)

METAR text: LYBT 191900Z 05007KT 020V090 9999 -RA BKN030 02/00 Q1017 NOSIG
Conditions at: LYBT (BATAJNICA , CS) observed 1900 UTC 19 January 2019
Temperature: 2.0°C (36°F)
Dewpoint: 0.0°C (32°F) [RH = 87%]
Pressure (altimeter): 30.03 inches Hg (1017.0 mb)
Winds: from the NE (50 degrees) at 8 MPH (7 knots; 3.6 m/s)
Visibility: 6 or more miles (10+ km)
Ceiling: 3000 feet AGL
Clouds: broken clouds at 3000 feet AGL
Weather: -RA  (light rain)

METAR text: LYBT 191830Z 03005KT 9999 -RA BKN027 02/00 Q1018 NOSIG
Conditions at: LYBT (BATAJNICA , CS) observed 1830 UTC 19 January 2019
Temperature: 2.0°C (36°F)
Dewpoint: 0.0°C (32°F) [RH = 87%]
Pressure (altimeter): 30.06 inches Hg (1018.0 mb)
Winds: from the NNE (30 degrees) at 6 MPH (5 knots; 2.6 m/s)
Visibility: 6 or more miles (10+ km)
Ceiling: 2700 feet AGL
Clouds: broken clouds at 2700 feet AGL
Weather: -RA  (light rain)

Forecast for: LYBT (BATAJNICA , CS)
Text: TAF LYBT 210500Z 2106/2206 36005KT 6000 OVC010 TX02/2112Z TNM03/2205Z
Forecast period: 0600 UTC 21 January 2019 to 0600 UTC 22 January 2019
Forecast type: FROM: standard forecast or significant change
Winds: from the N (360 degrees) at 6 MPH (5 knots; 2.6 m/s)
Visibility: 4 miles (6 km)
Ceiling: 1000 feet AGL
Clouds: overcast cloud deck at 1000 feet AGL
Weather: no significant weather forecast for this period
Text: TEMPO 2106/2108 3000 -DZ BR BKN005 OVC010
Forecast period: 0600 to 0800 UTC 21 January 2019
Forecast type: TEMPORARY: The following changes expected for less than half the time period
Visibility: 1.86 miles (2.99 km)
Ceiling: 500 feet AGL
Clouds: broken clouds at 500 feet AGL
overcast cloud deck at 1000 feet AGL
Weather: -DZ BR  (light drizzle, mist)
Text: TEMPO 2110/2116 BKN015 OVC023
Forecast period: 1000 to 1600 UTC 21 January 2019
Forecast type: TEMPORARY: The following changes expected for less than half the time period
Visibility: missing
Ceiling: 1500 feet AGL
Clouds: broken clouds at 1500 feet AGL
overcast cloud deck at 2300 feet AGL
Weather: no significant weather forecast for this period
Text: TEMPO 2121/2206 4000 -SN
Forecast period: 2100 UTC 21 January 2019 to 0600 UTC 22 January 2019
Forecast type: TEMPORARY: The following changes expected for less than half the time period
Visibility: 2.49 miles (4.01 km)
Ceiling: unknown
Clouds: missing
Weather: -SN  (light snow)